地図

経路データ

SID SEASON NUMBER BASIN SUBBASIN NAME ISO_TIME NATURE LAT LON WMO_WIND WMO_PRES WMO_AGENCY TRACK_TYPE DIST2LAND LANDFALL IFLAG USA_AGENCY USA_ATCF_ID USA_LAT USA_LON USA_RECORD USA_STATUS USA_WIND USA_PRES USA_SSHS USA_R34_NE USA_R34_SE USA_R34_SW USA_R34_NW USA_R50_NE USA_R50_SE USA_R50_SW USA_R50_NW USA_R64_NE USA_R64_SE USA_R64_SW USA_R64_NW USA_POCI USA_ROCI USA_RMW USA_EYE TOKYO_LAT TOKYO_LON TOKYO_GRADE TOKYO_WIND TOKYO_PRES TOKYO_R50_DIR TOKYO_R50_LONG TOKYO_R50_SHORT TOKYO_R30_DIR TOKYO_R30_LONG TOKYO_R30_SHORT TOKYO_LAND CMA_LAT CMA_LON CMA_CAT CMA_WIND CMA_PRES HKO_LAT HKO_LON HKO_CAT HKO_WIND HKO_PRES NEWDELHI_LAT NEWDELHI_LON NEWDELHI_GRADE NEWDELHI_WIND NEWDELHI_PRES NEWDELHI_CI NEWDELHI_DP NEWDELHI_POCI REUNION_LAT REUNION_LON REUNION_TYPE REUNION_WIND REUNION_PRES REUNION_TNUM REUNION_CI REUNION_RMW REUNION_R34_NE REUNION_R34_SE REUNION_R34_SW REUNION_R34_NW REUNION_R50_NE REUNION_R50_SE REUNION_R50_SW REUNION_R50_NW REUNION_R64_NE REUNION_R64_SE REUNION_R64_SW REUNION_R64_NW BOM_LAT BOM_LON BOM_TYPE BOM_WIND BOM_PRES BOM_TNUM BOM_CI BOM_RMW BOM_R34_NE BOM_R34_SE BOM_R34_SW BOM_R34_NW BOM_R50_NE BOM_R50_SE BOM_R50_SW BOM_R50_NW BOM_R64_NE BOM_R64_SE BOM_R64_SW BOM_R64_NW BOM_ROCI BOM_POCI BOM_EYE BOM_POS_METHOD BOM_PRES_METHOD NADI_LAT NADI_LON NADI_CAT NADI_WIND NADI_PRES WELLINGTON_LAT WELLINGTON_LON WELLINGTON_WIND WELLINGTON_PRES DS824_LAT DS824_LON DS824_STAGE DS824_WIND DS824_PRES TD9636_LAT TD9636_LON TD9636_STAGE TD9636_WIND TD9636_PRES TD9635_LAT TD9635_LON TD9635_WIND TD9635_PRES TD9635_ROCI NEUMANN_LAT NEUMANN_LON NEUMANN_CLASS NEUMANN_WIND NEUMANN_PRES MLC_LAT MLC_LON MLC_CLASS MLC_WIND MLC_PRES USA_GUST BOM_GUST BOM_GUST_PER REUNION_GUST REUNION_GUST_PER USA_SEAHGT USA_SEARAD_NE USA_SEARAD_SE USA_SEARAD_SW USA_SEARAD_NW STORM_SPEED STORM_DIR
1946186N31281 1946 36 NA NA NOT_NAMED 1946-07-05 06:00:00 ET 31.4000 -79.3000 30 hurdat_atl main 149 120 O_____________ hurdat_atl AL021946 31.4000 -79.3000 EX 30 -4 6 0
1946186N31281 1946 36 NA NA NOT_NAMED 1946-07-05 09:00:00 ET 31.7000 -79.2699 main 120 100 P_____________ AL021946 31.7000 -79.2699 EX 30 -4 6 8
1946186N31281 1946 36 NA NA NOT_NAMED 1946-07-05 12:00:00 ET 32.0000 -79.2000 30 hurdat_atl main 100 82 O_____________ hurdat_atl AL021946 32.0000 -79.2000 EX 30 -4 6 16
1946186N31281 1946 36 NA NA NOT_NAMED 1946-07-05 15:00:00 ET 32.3000 -79.0650 main 82 64 P_____________ AL021946 32.3000 -79.0650 EX 32 -4 7 23
1946186N31281 1946 36 NA NA NOT_NAMED 1946-07-05 18:00:00 ET 32.6000 -78.9000 35 hurdat_atl main 64 50 O_____________ hurdat_atl AL021946 32.6000 -78.9000 EX 35 -4 7 24
1946186N31281 1946 36 NA NA NOT_NAMED 1946-07-05 21:00:00 ET 32.9075 -78.7499 main 57 47 P_____________ AL021946 32.9075 -78.7499 EX 37 -4 7 23
1946186N31281 1946 36 NA NA NOT_NAMED 1946-07-06 00:00:00 TS 33.2000 -78.6000 40 hurdat_atl main 55 49 O_____________ hurdat_atl AL021946 33.2000 -78.6000 TS 40 0 6 25
1946186N31281 1946 36 NA NA NOT_NAMED 1946-07-06 03:00:00 TS 33.4448 -78.4499 main 55 22 P_____________ AL021946 33.4448 -78.4499 TS 42 0 6 27
1946186N31281 1946 36 NA NA NOT_NAMED 1946-07-06 06:00:00 TS 33.7000 -78.3000 45 hurdat_atl main 22 0 O_____________ hurdat_atl AL021946 33.7000 -78.3000 TS 45 0 6 25
1946186N31281 1946 36 NA NA NOT_NAMED 1946-07-06 08:00:00 TS 33.9000 -78.2000 45 hurdat_atl main 0 0 O_____________ hurdat_atl AL021946 33.9000 -78.2000 L TS 45 0 7 20
1946186N31281 1946 36 NA NA NOT_NAMED 1946-07-06 09:00:00 TS 34.0158 -78.1623 main 0 0 P_____________ AL021946 34.0158 -78.1623 TS 45 0 8 19
1946186N31281 1946 36 NA NA NOT_NAMED 1946-07-06 12:00:00 TS 34.4000 -78.0000 45 1005 hurdat_atl main 0 0 O_____________ hurdat_atl AL021946 34.4000 -78.0000 TS 45 1005 0 9 32
1946186N31281 1946 36 NA NA NOT_NAMED 1946-07-06 15:00:00 TS 34.7545 -77.5921 main 0 0 P_____________ AL021946 34.7545 -77.5921 TS 45 0 11 50
1946186N31281 1946 36 NA NA NOT_NAMED 1946-07-06 18:00:00 TS 35.1000 -77.0000 45 hurdat_atl main 0 0 O_____________ hurdat_atl AL021946 35.1000 -77.0000 TS 45 0 12 56
1946186N31281 1946 36 NA NA NOT_NAMED 1946-07-06 21:00:00 TS 35.4267 -76.3733 main 0 0 P_____________ AL021946 35.4267 -76.3733 TS 45 0 13 58
1946186N31281 1946 36 NA NA NOT_NAMED 1946-07-07 00:00:00 TS 35.8000 -75.6000 45 hurdat_atl main 8 0 O_____________ hurdat_atl AL021946 35.8000 -75.6000 TS 45 0 17 59
1946186N31281 1946 36 NA NA NOT_NAMED 1946-07-07 03:00:00 TS 36.2786 -74.6085 main 95 95 P_____________ AL021946 36.2786 -74.6085 TS 50 0 19 58
1946186N31281 1946 36 NA NA NOT_NAMED 1946-07-07 06:00:00 TS 36.8000 -73.6000 55 hurdat_atl main 198 198 O_____________ hurdat_atl AL021946 36.8000 -73.6000 TS 55 0 18 53
1946186N31281 1946 36 NA NA NOT_NAMED 1946-07-07 09:00:00 TS 37.3437 -72.8122 main 230 224 P_____________ AL021946 37.3437 -72.8122 TS 60 0 16 50
1946186N31281 1946 36 NA NA NOT_NAMED 1946-07-07 12:00:00 TS 37.8000 -72.1000 65 hurdat_atl main 267 267 O_____________ hurdat_atl AL021946 37.8000 -72.1000 HU 65 1 14 58
1946186N31281 1946 36 NA NA NOT_NAMED 1946-07-07 15:00:00 TS 38.0745 -71.3492 main 302 302 P_____________ AL021946 38.0745 -71.3492 HU 67 1 12 71
1946186N31281 1946 36 NA NA NOT_NAMED 1946-07-07 18:00:00 TS 38.2000 -70.6000 70 hurdat_atl main 336 336 O_____________ hurdat_atl AL021946 38.2000 -70.6000 HU 70 1 12 82
1946186N31281 1946 36 NA NA NOT_NAMED 1946-07-07 21:00:00 TS 38.2370 -69.8493 main 375 375 P_____________ AL021946 38.2370 -69.8493 HU 70 1 12 90
1946186N31281 1946 36 NA NA NOT_NAMED 1946-07-08 00:00:00 TS 38.2000 -69.1000 70 hurdat_atl main 391 391 O_____________ hurdat_atl AL021946 38.2000 -69.1000 HU 70 1 12 94
1946186N31281 1946 36 NA NA NOT_NAMED 1946-07-08 03:00:00 TS 38.1569 -68.3574 main 412 412 P_____________ AL021946 38.1569 -68.3574 HU 70 1 12 95
1946186N31281 1946 36 NA NA NOT_NAMED 1946-07-08 06:00:00 TS 38.1000 -67.6000 70 hurdat_atl main 449 449 O_____________ hurdat_atl AL021946 38.1000 -67.6000 HU 70 1 12 95
1946186N31281 1946 36 NA NA NOT_NAMED 1946-07-08 09:00:00 TS 38.0418 -66.8223 main 493 493 P_____________ AL021946 38.0418 -66.8223 HU 70 1 13 95
1946186N31281 1946 36 NA NA NOT_NAMED 1946-07-08 12:00:00 TS 38.0000 -66.0000 70 hurdat_atl main 534 534 O_____________ hurdat_atl AL021946 38.0000 -66.0000 HU 70 1 13 93
1946186N31281 1946 36 NA NA NOT_NAMED 1946-07-08 15:00:00 TS 37.9618 -65.1290 main 585 585 P_____________ AL021946 37.9618 -65.1290 HU 70 1 14 90
1946186N31281 1946 36 NA NA NOT_NAMED 1946-07-08 18:00:00 TS 38.0000 -64.2000 70 hurdat_atl main 618 615 O_____________ hurdat_atl AL021946 38.0000 -64.2000 HU 70 1 15 83
1946186N31281 1946 36 NA NA NOT_NAMED 1946-07-08 21:00:00 TS 38.1471 -63.2147 main 626 615 P_____________ AL021946 38.1471 -63.2147 HU 67 1 16 76
1946186N31281 1946 36 NA NA NOT_NAMED 1946-07-09 00:00:00 ET 38.4000 -62.2000 65 hurdat_atl main 623 620 O_____________ hurdat_atl AL021946 38.4000 -62.2000 EX 65 -4 17 71
1946186N31281 1946 36 NA NA NOT_NAMED 1946-07-09 03:00:00 ET 38.7122 -61.1772 main 634 629 P_____________ AL021946 38.7122 -61.1772 EX 62 -4 17 66
1946186N31281 1946 36 NA NA NOT_NAMED 1946-07-09 06:00:00 ET 39.1000 -60.2000 60 hurdat_atl main 647 642 O_____________ hurdat_atl AL021946 39.1000 -60.2000 EX 60 -4 17 61
1946186N31281 1946 36 NA NA NOT_NAMED 1946-07-09 09:00:00 ET 39.5269 -59.2970 main 645 615 P_____________ AL021946 39.5269 -59.2970 EX 57 -4 16 56
1946186N31281 1946 36 NA NA NOT_NAMED 1946-07-09 12:00:00 ET 40.0000 -58.5000 55 hurdat_atl main 615 587 O_____________ hurdat_atl AL021946 40.0000 -58.5000 EX 55 -4 15 50
1946186N31281 1946 36 NA NA NOT_NAMED 1946-07-09 15:00:00 ET 40.4842 -57.8111 main 587 563 P_____________ AL021946 40.4842 -57.8111 EX 52 -4 14 45
1946186N31281 1946 36 NA NA NOT_NAMED 1946-07-09 18:00:00 ET 41.0000 -57.2000 50 hurdat_atl main 563 546 O_____________ hurdat_atl AL021946 41.0000 -57.2000 EX 50 -4 14 42
1946186N31281 1946 36 NA NA NOT_NAMED 1946-07-09 21:00:00 ET 41.5348 -56.5767 main 548 522 P_____________ AL021946 41.5348 -56.5767 EX 47 -4 14 39
1946186N31281 1946 36 NA NA NOT_NAMED 1946-07-10 00:00:00 ET 42.1000 -56.0000 45 hurdat_atl main 522 466 O_____________ hurdat_atl AL021946 42.1000 -56.0000 EX 45 -4 14 36
1946186N31281 1946 36 NA NA NOT_NAMED 1946-07-10 03:00:00 ET 42.6696 -55.4833 main 455 382 P_____________ AL021946 42.6696 -55.4833 EX 42 -4 14 31
1946186N31281 1946 36 NA NA NOT_NAMED 1946-07-10 06:00:00 ET 43.3000 -55.0000 40 hurdat_atl main 382 297 O_____________ hurdat_atl AL021946 43.3000 -55.0000 EX 40 -4 15 28
1946186N31281 1946 36 NA NA NOT_NAMED 1946-07-10 09:00:00 ET 44.0123 -54.4989 main 297 202 P_____________ AL021946 44.0123 -54.4989 EX 40 -4 17 26
1946186N31281 1946 36 NA NA NOT_NAMED 1946-07-10 12:00:00 ET 44.8000 -54.0000 40 hurdat_atl main 202 111 O_____________ hurdat_atl AL021946 44.8000 -54.0000 EX 40 -4 18 23
1946186N31281 1946 36 NA NA NOT_NAMED 1946-07-10 15:00:00 ET 45.6379 -53.5031 main 111 18 P_____________ AL021946 45.6379 -53.5031 EX 37 -4 18 22
1946186N31281 1946 36 NA NA NOT_NAMED 1946-07-10 18:00:00 ET 46.5000 -53.0000 35 hurdat_atl main 18 O_____________ hurdat_atl AL021946 46.5000 -53.0000 EX 35 -4 19 22

IBTrACS Databaseについて

本データベースは、米国NOAAが公開する1842年以降の世界の熱帯低気圧のベストトラックデータアーカイブInternational Best Track Archive for Climate Stewardship (IBTrACS)を、ウェブで閲覧しやすい形式に変換したものです。

最終更新日:2021-12-03